Time;durP1;ratioP1;P1;durP2;ratioP2;P2;SDS_P1;SDS_P2;PMS_P1;PMS_P2;Temp;Humidity;BMP_temperature;BMP_pressure;BME280_temperature;BME280_humidity;BME280_pressure;Samples;Min_cycle;Max_cycle;Signal;HPM_P1;HPM_P2
2021/09/21 00:01:51;;;;;;;15.60;9.70;;;;;;;3.96;85.04;101016.10;93666;1196;80050;-62
2021/09/21 00:03:55;;;;;;;17.90;9.90;;;;;;;3.93;85.01;101014.20;93724;1196;82382;-63
2021/09/21 00:06:00;;;;;;;12.10;8.40;;;;;;;3.91;85.05;101012.08;93663;1196;98784;-62
2021/09/21 00:08:07;;;;;;;12.40;8.80;;;;;;;3.89;85.10;101017.40;93773;1196;86743;-64
2021/09/21 00:10:13;;;;;;;14.90;9.70;;;;;;;3.87;85.11;101019.73;93717;1196;93328;-64
2021/09/21 00:12:17;;;;;;;12.70;8.90;;;;;;;3.83;85.09;101021.30;93771;1196;80179;-65
2021/09/21 00:14:22;;;;;;;15.60;9.60;;;;;;;3.78;85.18;101017.52;93691;1196;80780;-62
2021/09/21 00:16:29;;;;;;;14.70;9.10;;;;;;;3.73;85.10;101017.58;93676;1196;98539;-63
2021/09/21 00:18:34;;;;;;;13.20;8.70;;;;;;;3.69;85.05;101018.79;93732;1196;88203;-65
2021/09/21 00:20:38;;;;;;;13.40;9.60;;;;;;;3.64;85.00;101017.11;93688;1196;93925;-65
2021/09/21 00:22:46;;;;;;;12.70;8.40;;;;;;;3.63;85.07;101015.61;93690;1196;79753;-67
2021/09/21 00:24:50;;;;;;;19.00;9.70;;;;;;;3.61;85.12;101013.64;93699;1196;80234;-65
2021/09/21 00:26:55;;;;;;;14.10;9.00;;;;;;;3.58;85.14;101013.67;93691;1196;97624;-64
2021/09/21 00:29:00;;;;;;;12.20;8.90;;;;;;;3.58;85.16;101012.23;93670;1196;88468;-64
2021/09/21 00:31:08;;;;;;;14.40;9.50;;;;;;;3.59;85.38;101012.90;93738;1196;93104;-65
2021/09/21 00:33:17;;;;;;;15.30;10.60;;;;;;;3.61;85.35;101017.05;93670;1196;78532;-62
2021/09/21 00:35:25;;;;;;;16.30;9.50;;;;;;;3.65;85.52;101014.11;93747;1196;81074;-62
2021/09/21 00:37:29;;;;;;;14.20;8.60;;;;;;;3.69;85.54;101014.37;93656;1198;99509;-61
2021/09/21 00:39:37;;;;;;;13.50;9.70;;;;;;;3.68;85.50;101018.52;93699;1196;87979;-63
2021/09/21 00:41:42;;;;;;;15.10;9.30;;;;;;;3.66;85.65;101015.30;93679;1198;94408;-64
2021/09/21 00:43:47;;;;;;;12.60;9.00;;;;;;;3.65;85.53;101016.29;93736;1196;79942;-62
2021/09/21 00:45:53;;;;;;;13.00;9.10;;;;;;;3.65;85.63;101018.77;93755;1196;82355;-63
2021/09/21 00:47:57;;;;;;;14.50;9.20;;;;;;;3.68;85.68;101019.09;93760;1196;97898;-63
2021/09/21 00:50:01;;;;;;;13.20;9.60;;;;;;;3.72;85.71;101020.86;93741;1196;86145;-63
2021/09/21 00:52:06;;;;;;;13.00;9.00;;;;;;;3.72;85.76;101018.55;93698;1196;94617;-64
2021/09/21 00:54:14;;;;;;;13.40;9.20;;;;;;;3.72;85.64;101019.58;93703;1196;78544;-63
2021/09/21 00:56:18;;;;;;;14.60;9.20;;;;;;;3.76;85.83;101021.20;93757;1196;80947;-63
2021/09/21 00:58:22;;;;;;;14.50;8.90;;;;;;;3.82;85.94;101021.74;93689;1196;97647;-63
2021/09/21 01:00:27;;;;;;;14.10;8.90;;;;;;;3.87;86.08;101023.70;93679;1196;86461;-64
2021/09/21 01:02:34;;;;;;;15.90;8.60;;;;;;;3.85;86.09;101022.22;93737;1196;93528;-62
2021/09/21 01:04:39;;;;;;;14.00;9.60;;;;;;;3.88;86.14;101021.27;93701;1196;80773;-62
2021/09/21 01:06:43;;;;;;;13.60;9.00;;;;;;;3.91;85.94;101021.33;93715;1196;82221;-63
2021/09/21 01:08:47;;;;;;;14.50;9.50;;;;;;;3.94;85.97;101019.48;93721;1196;97687;-62
2021/09/21 01:10:52;;;;;;;14.90;9.20;;;;;;;3.96;86.06;101020.00;93690;1196;87975;-62
2021/09/21 01:12:57;;;;;;;13.10;8.80;;;;;;;3.97;86.08;101024.56;93699;1196;94188;-64
2021/09/21 01:15:02;;;;;;;16.20;9.30;;;;;;;3.97;86.12;101026.39;93742;1196;78737;-64
2021/09/21 01:17:06;;;;;;;14.60;9.00;;;;;;;3.97;86.13;101029.19;93725;1196;82998;-64
2021/09/21 01:19:15;;;;;;;15.50;9.90;;;;;;;3.96;86.15;101025.91;93635;1196;98081;-61
2021/09/21 01:21:24;;;;;;;17.00;10.10;;;;;;;3.94;86.20;101023.34;93727;1196;87407;-62
2021/09/21 01:23:29;;;;;;;13.80;9.50;;;;;;;3.95;86.11;101022.42;93644;1196;94120;-63
2021/09/21 01:25:34;;;;;;;15.30;9.70;;;;;;;3.97;86.35;101018.33;93694;1196;78504;-62
2021/09/21 01:27:42;;;;;;;14.10;9.40;;;;;;;3.99;86.45;101017.06;93733;1196;81732;-62
2021/09/21 01:29:46;;;;;;;15.50;9.50;;;;;;;4.02;86.32;101019.70;93713;1196;98281;-64
2021/09/21 01:31:50;;;;;;;15.00;9.60;;;;;;;4.06;86.47;101016.63;93693;1196;88113;-62
2021/09/21 01:33:56;;;;;;;13.70;9.50;;;;;;;4.09;86.58;101010.17;93699;1196;93863;-65
2021/09/21 01:36:00;;;;;;;15.20;10.20;;;;;;;4.11;86.61;101009.59;93707;1196;80253;-63
2021/09/21 01:38:04;;;;;;;16.40;9.90;;;;;;;4.15;86.48;101010.66;93709;1196;82483;-63
2021/09/21 01:40:11;;;;;;;14.60;9.90;;;;;;;4.20;86.71;101009.95;93658;1196;98777;-64
2021/09/21 01:42:16;;;;;;;13.70;10.00;;;;;;;4.22;86.69;101018.52;93764;1196;86785;-63
2021/09/21 01:44:21;;;;;;;15.90;10.70;;;;;;;4.22;86.71;101017.55;93660;1196;95696;-62
2021/09/21 01:46:25;;;;;;;16.00;10.40;;;;;;;4.21;86.77;101018.20;93705;1196;79776;-63
2021/09/21 01:48:30;;;;;;;16.30;10.30;;;;;;;4.23;86.76;101018.92;93698;1196;82117;-63
2021/09/21 01:50:41;;;;;;;15.70;10.50;;;;;;;4.25;86.65;101020.91;93697;1196;98572;-64
2021/09/21 01:52:52;;;;;;;13.70;9.80;;;;;;;4.28;86.97;101024.05;93748;1196;88740;-63
2021/09/21 01:55:11;;;;;;;15.00;9.90;;;;;;;4.29;86.69;101018.71;93699;1196;92456;-63
2021/09/21 01:59:38;;;;;;;15.10;9.90;;;;;;;4.29;86.60;101022.14;93614;1196;80408;-62
2021/09/21 02:01:45;;;;;;;14.00;9.80;;;;;;;4.27;86.70;101023.06;93728;1189;97979;-62
2021/09/21 02:03:51;;;;;;;14.00;9.70;;;;;;;4.28;86.79;101022.75;93655;1196;87956;-63
2021/09/21 02:05:56;;;;;;;14.50;9.80;;;;;;;4.29;86.80;101024.48;93694;1196;94427;-64
2021/09/21 02:08:00;;;;;;;15.60;10.40;;;;;;;4.29;86.92;101025.71;93711;1196;79988;-63
2021/09/21 02:10:07;;;;;;;14.70;9.50;;;;;;;4.28;86.98;101026.70;93665;1196;82257;-62
2021/09/21 02:12:11;;;;;;;15.10;9.50;;;;;;;4.27;86.83;101026.95;93721;1196;98924;-63
2021/09/21 02:14:17;;;;;;;15.80;10.20;;;;;;;4.25;86.97;101028.93;93672;1196;87716;-63
2021/09/21 02:16:22;;;;;;;14.70;9.30;;;;;;;4.25;87.06;101033.73;93662;1196;94169;-64
2021/09/21 02:18:26;;;;;;;13.30;9.30;;;;;;;4.26;86.84;101033.14;93627;1196;79949;-62
2021/09/21 02:20:30;;;;;;;15.70;10.60;;;;;;;4.20;86.74;101031.28;93748;1196;81163;-64
2021/09/21 02:22:34;;;;;;;14.10;9.90;;;;;;;4.15;86.74;101034.58;93673;1196;98856;-63
2021/09/21 02:24:39;;;;;;;14.70;9.10;;;;;;;4.09;86.79;101034.74;93742;1196;88434;-63
2021/09/21 02:26:43;;;;;;;14.00;9.10;;;;;;;4.01;86.65;101036.13;93661;1196;93117;-63
2021/09/21 02:28:47;;;;;;;13.30;9.10;;;;;;;3.99;86.80;101038.62;93653;1196;78135;-63
2021/09/21 02:30:51;;;;;;;14.30;9.60;;;;;;;4.00;86.70;101039.27;93717;1196;80523;-64
2021/09/21 02:32:55;;;;;;;14.10;9.70;;;;;;;4.00;86.92;101039.84;93672;1196;97766;-65
2021/09/21 02:35:00;;;;;;;16.70;10.00;;;;;;;3.99;86.83;101044.67;93743;1196;86078;-63
2021/09/21 02:37:07;;;;;;;14.50;9.50;;;;;;;3.99;86.89;101046.33;93706;1196;94501;-63
2021/09/21 02:39:14;;;;;;;13.00;9.60;;;;;;;3.99;87.10;101045.04;93651;1196;82187;-63
2021/09/21 02:41:18;;;;;;;14.90;9.70;;;;;;;3.98;87.02;101044.95;93697;1196;81462;-63
2021/09/21 02:43:22;;;;;;;14.70;9.30;;;;;;;3.99;87.07;101043.60;93697;1196;97979;-63
2021/09/21 02:45:26;;;;;;;15.70;10.00;;;;;;;3.98;87.10;101044.10;93715;1196;86607;-63
2021/09/21 02:47:30;;;;;;;13.70;9.50;;;;;;;3.99;86.98;101044.15;93710;1196;93837;-64
2021/09/21 02:49:35;;;;;;;14.10;9.60;;;;;;;3.96;87.08;101043.34;93707;1196;78814;-63
2021/09/21 02:51:39;;;;;;;13.90;9.00;;;;;;;3.95;86.80;101044.20;93741;1196;80490;-63
2021/09/21 02:53:43;;;;;;;14.00;9.30;;;;;;;3.95;86.90;101041.43;93675;1196;98862;-62
2021/09/21 02:55:47;;;;;;;13.30;9.30;;;;;;;3.94;86.85;101041.96;93728;1196;87010;-63
2021/09/21 02:57:51;;;;;;;14.40;9.50;;;;;;;3.92;86.94;101042.80;93694;1196;94415;-64
2021/09/21 02:59:55;;;;;;;14.80;10.10;;;;;;;3.90;86.89;101044.09;93649;1196;79948;-64
2021/09/21 03:01:59;;;;;;;14.90;9.70;;;;;;;3.87;86.94;101040.04;93692;1196;82003;-64
2021/09/21 03:04:07;;;;;;;11.80;8.50;;;;;;;3.86;86.93;101039.78;93720;1196;97747;-62
2021/09/21 03:06:20;;;;;;;13.10;8.70;;;;;;;3.85;86.92;101038.27;93724;1196;87998;-63
2021/09/21 03:08:27;;;;;;;13.60;9.20;;;;;;;3.87;86.89;101037.60;93651;1196;93931;-63
2021/09/21 03:10:48;;;;;;;13.40;8.60;;;;;;;3.87;86.96;101038.10;93691;1196;79419;-62
2021/09/21 03:17:46;;;;;;;12.90;9.00;;;;;;;3.82;87.07;101035.48;93724;1196;88152;-63
2021/09/21 03:19:50;;;;;;;13.80;8.90;;;;;;;3.84;86.95;101035.71;93691;1196;93677;-61
2021/09/21 03:21:55;;;;;;;14.00;9.20;;;;;;;3.87;87.10;101039.50;93696;1196;78481;-62
2021/09/21 03:24:00;;;;;;;12.70;8.90;;;;;;;3.88;87.27;101039.38;93741;1196;80791;-67
2021/09/21 03:26:04;;;;;;;14.30;8.90;;;;;;;3.85;87.00;101042.53;93766;1196;98345;-63
2021/09/21 03:28:08;;;;;;;12.90;8.80;;;;;;;3.78;86.96;101038.85;93734;1196;87237;-64
2021/09/21 03:30:14;;;;;;;13.00;7.90;;;;;;;3.73;86.79;101041.82;93745;1196;92591;-65
2021/09/21 03:32:18;;;;;;;11.00;8.80;;;;;;;3.70;86.79;101039.21;93699;1196;78251;-63
2021/09/21 03:34:26;;;;;;;12.30;8.30;;;;;;;3.65;86.84;101039.61;93715;1196;80243;-63
2021/09/21 03:36:30;;;;;;;13.00;8.60;;;;;;;3.66;86.99;101039.02;93718;1196;98210;-63
2021/09/21 03:38:34;;;;;;;15.20;9.50;;;;;;;3.63;86.87;101041.20;93672;1196;86888;-63
2021/09/21 03:40:39;;;;;;;15.90;9.80;;;;;;;3.59;86.82;101041.02;93724;1196;93523;-63
2021/09/21 03:42:46;;;;;;;12.40;9.10;;;;;;;3.55;86.86;101047.20;93670;1196;80535;-64
2021/09/21 03:44:50;;;;;;;13.50;9.30;;;;;;;3.52;86.82;101049.41;93689;1196;82727;-62
2021/09/21 03:46:55;;;;;;;12.20;8.70;;;;;;;3.55;86.68;101049.02;93648;1197;98387;-63
2021/09/21 03:49:03;;;;;;;14.20;8.60;;;;;;;3.52;86.86;101054.46;93777;1196;86600;-63
2021/09/21 03:51:07;;;;;;;15.20;9.40;;;;;;;3.50;86.88;101054.27;93691;1196;93635;-63
2021/09/21 03:53:14;;;;;;;12.60;8.90;;;;;;;3.43;86.97;101055.91;93660;1196;79411;-64
2021/09/21 03:55:19;;;;;;;13.90;8.60;;;;;;;3.44;86.91;101056.52;93701;1196;81102;-63
2021/09/21 03:57:24;;;;;;;14.00;8.20;;;;;;;3.44;87.07;101060.45;93711;1196;99373;-64
2021/09/21 03:59:28;;;;;;;12.80;9.10;;;;;;;3.42;87.02;101064.41;93719;1196;86131;-62
2021/09/21 04:01:33;;;;;;;14.00;8.70;;;;;;;3.41;87.05;101066.56;93708;1196;92919;-62
2021/09/21 04:03:40;;;;;;;13.60;8.30;;;;;;;3.39;86.94;101064.98;93688;1196;79543;-66
2021/09/21 04:05:44;;;;;;;13.00;8.40;;;;;;;3.36;86.82;101067.70;93684;1196;81561;-64
2021/09/21 04:07:50;;;;;;;12.10;8.10;;;;;;;3.35;86.93;101077.25;93711;1196;99603;-64
2021/09/21 04:09:54;;;;;;;12.70;8.80;;;;;;;3.35;86.81;101075.84;93678;1196;88852;-63
2021/09/21 04:11:58;;;;;;;13.90;8.40;;;;;;;3.31;87.00;101079.71;93751;1196;94543;-62
2021/09/21 04:14:03;;;;;;;13.90;8.90;;;;;;;3.27;86.91;101087.18;93659;1196;78557;-63
2021/09/21 04:16:07;;;;;;;12.80;9.50;;;;;;;3.26;86.86;101089.41;93699;1196;80850;-63
2021/09/21 04:18:19;;;;;;;13.90;9.10;;;;;;;3.22;86.83;101088.48;93687;1196;97512;-64
2021/09/21 04:20:26;;;;;;;12.00;8.90;;;;;;;3.22;86.94;101098.27;93713;1196;86535;-64
2021/09/21 04:22:31;;;;;;;12.80;8.70;;;;;;;3.21;86.97;101104.38;93715;1196;92581;-63
2021/09/21 04:24:35;;;;;;;13.90;9.40;;;;;;;3.21;86.92;101102.24;93677;1196;78119;-64
2021/09/21 04:26:39;;;;;;;12.90;8.80;;;;;;;3.22;87.02;101106.06;93706;1196;81956;-64
2021/09/21 04:28:45;;;;;;;12.90;8.40;;;;;;;3.19;87.10;101114.04;93697;1196;98104;-63
2021/09/21 04:30:50;;;;;;;11.70;8.00;;;;;;;3.18;87.05;101114.27;93667;1196;89145;-64
2021/09/21 04:32:54;;;;;;;15.40;9.10;;;;;;;3.20;87.03;101117.84;93741;1196;94075;-63
2021/09/21 04:35:02;;;;;;;13.20;9.00;;;;;;;3.23;87.10;101118.30;93706;1196;79016;-64
2021/09/21 04:37:06;;;;;;;16.40;9.00;;;;;;;3.24;87.18;101120.53;93784;1196;80869;-65
2021/09/21 04:39:10;;;;;;;14.50;9.80;;;;;;;3.29;87.15;101116.38;93690;1196;96638;-63
2021/09/21 04:41:15;;;;;;;14.30;9.40;;;;;;;3.30;87.16;101117.53;93717;1196;87597;-63
2021/09/21 04:43:19;;;;;;;15.10;9.50;;;;;;;3.31;87.01;101114.26;93673;1196;94279;-62
2021/09/21 04:45:24;;;;;;;14.80;9.90;;;;;;;3.35;87.21;101117.34;93718;1196;80014;-63
2021/09/21 04:47:31;;;;;;;14.00;8.80;;;;;;;3.38;87.16;101113.98;93734;1196;80606;-63
2021/09/21 04:49:35;;;;;;;16.60;9.60;;;;;;;3.43;87.15;101117.66;93667;1196;98480;-63
2021/09/21 04:51:40;;;;;;;14.70;9.50;;;;;;;3.48;87.42;101117.42;93727;1196;86989;-64
2021/09/21 04:53:45;;;;;;;15.70;9.90;;;;;;;3.55;87.25;101120.75;93662;1196;94795;-63
2021/09/21 04:55:49;;;;;;;12.20;8.40;;;;;;;3.64;87.41;101122.67;93696;1196;79453;-62
2021/09/21 04:57:53;;;;;;;14.10;9.10;;;;;;;3.75;87.48;101121.30;93691;1196;82102;-64
2021/09/21 04:59:57;;;;;;;15.00;10.10;;;;;;;3.83;87.53;101128.20;93710;1196;98735;-65
2021/09/21 05:02:05;;;;;;;15.20;9.20;;;;;;;3.94;87.59;101125.89;93729;1196;86791;-65
2021/09/21 05:04:09;;;;;;;16.80;10.10;;;;;;;4.03;87.75;101122.98;93678;1196;91994;-64
2021/09/21 05:06:13;;;;;;;14.00;9.60;;;;;;;4.21;87.73;101126.89;93676;1196;80479;-64
2021/09/21 05:08:17;;;;;;;14.50;9.60;;;;;;;4.42;87.61;101130.12;93733;1196;79926;-59
2021/09/21 05:10:25;;;;;;;15.40;9.60;;;;;;;4.66;87.58;101134.45;93721;1196;98546;-63
2021/09/21 05:12:29;;;;;;;13.70;9.40;;;;;;;4.93;87.33;101135.02;93682;1196;87365;-64
2021/09/21 05:14:33;;;;;;;14.40;9.90;;;;;;;4.99;87.12;101138.48;93667;1196;95427;-65
2021/09/21 05:16:37;;;;;;;14.00;9.90;;;;;;;5.02;87.18;101142.64;93749;1196;78238;-64
2021/09/21 05:18:44;;;;;;;15.40;10.00;;;;;;;5.04;87.23;101144.92;93724;1196;82514;-62
2021/09/21 05:20:48;;;;;;;13.40;9.60;;;;;;;5.12;87.29;101143.15;93697;1196;98809;-63
2021/09/21 05:22:53;;;;;;;14.50;9.20;;;;;;;5.22;87.40;101146.67;93665;1196;88214;-63
2021/09/21 05:25:00;;;;;;;16.00;9.70;;;;;;;5.29;87.50;101147.13;93752;1196;93921;-68
2021/09/21 05:27:04;;;;;;;15.20;10.10;;;;;;;5.37;87.51;101145.02;93665;1196;79868;-64
2021/09/21 05:29:40;;;;;;;13.80;10.10;;;;;;;5.43;87.63;101146.10;93730;1196;80327;-64
2021/09/21 05:31:48;;;;;;;13.60;9.60;;;;;;;5.49;87.70;101144.47;93702;1196;99846;-62
2021/09/21 05:33:52;;;;;;;12.70;9.20;;;;;;;5.59;87.71;101139.39;93716;1196;88277;-63
2021/09/21 05:35:57;;;;;;;12.80;9.40;;;;;;;5.67;87.84;101146.19;93685;1194;92784;-61
2021/09/21 05:38:01;;;;;;;14.50;9.50;;;;;;;5.76;87.68;101146.20;93636;1198;78745;-64
2021/09/21 05:40:10;;;;;;;15.20;9.40;;;;;;;5.86;87.83;101141.21;93696;1196;82658;-64
2021/09/21 05:42:14;;;;;;;14.60;9.80;;;;;;;6.00;87.88;101138.68;93756;1196;99045;-65
2021/09/21 05:44:19;;;;;;;14.60;9.40;;;;;;;6.15;87.79;101137.98;93689;1196;89214;-65
2021/09/21 05:46:24;;;;;;;14.30;9.40;;;;;;;6.27;87.83;101137.89;93766;1196;93919;-64
2021/09/21 05:48:32;;;;;;;13.30;9.70;;;;;;;6.34;87.74;101134.80;93733;1196;81114;-64
2021/09/21 05:50:37;;;;;;;15.60;9.80;;;;;;;6.40;87.91;101137.52;93655;1198;81840;-62
2021/09/21 05:52:44;;;;;;;14.60;10.60;;;;;;;6.51;87.94;101138.98;93699;1196;97987;-62
2021/09/21 05:54:48;;;;;;;14.50;9.80;;;;;;;6.65;87.90;101139.53;93729;1196;88567;-63
2021/09/21 05:56:52;;;;;;;16.40;11.60;;;;;;;6.74;87.83;101140.59;93695;1196;93479;-63
2021/09/21 05:58:56;;;;;;;15.60;10.00;;;;;;;6.80;87.88;101139.66;93700;1196;80275;-62
2021/09/21 06:01:02;;;;;;;15.10;10.10;;;;;;;6.86;87.78;101141.39;93715;1196;81891;-63
2021/09/21 06:03:09;;;;;;;13.80;9.90;;;;;;;6.96;87.87;101141.50;93782;1196;99447;-62
2021/09/21 06:05:13;;;;;;;14.40;10.10;;;;;;;7.06;87.90;101142.67;93695;1196;87526;-62
2021/09/21 06:07:17;;;;;;;13.50;9.80;;;;;;;7.16;88.06;101143.45;93682;1196;93895;-63
2021/09/21 06:09:24;;;;;;;13.90;9.30;;;;;;;7.29;87.95;101149.16;93648;1196;79671;-62
2021/09/21 06:11:32;;;;;;;12.50;9.60;;;;;;;7.44;87.81;101149.77;93684;1196;81863;-63
2021/09/21 06:13:41;;;;;;;11.90;9.40;;;;;;;7.58;87.69;101146.98;93645;1196;98403;-64
2021/09/21 06:15:47;;;;;;;13.90;9.70;;;;;;;7.64;87.59;101143.98;93729;1196;87597;-65
2021/09/21 06:17:51;;;;;;;14.40;10.20;;;;;;;7.72;87.52;101145.92;93727;1196;93313;-64
2021/09/21 06:19:55;;;;;;;13.30;9.70;;;;;;;7.76;87.42;101146.06;93694;1196;79644;-64
2021/09/21 06:21:59;;;;;;;12.50;9.20;;;;;;;7.78;87.45;101150.06;93726;1190;81728;-64
2021/09/21 06:24:04;;;;;;;14.90;10.20;;;;;;;7.83;87.29;101149.52;93642;1196;98362;-62
2021/09/21 06:26:08;;;;;;;13.40;9.60;;;;;;;7.90;87.28;101145.39;93744;1196;87905;-62
2021/09/21 06:28:12;;;;;;;13.00;9.60;;;;;;;7.97;87.26;101149.18;93680;1196;93769;-63
2021/09/21 06:30:18;;;;;;;14.30;10.30;;;;;;;8.04;87.36;101150.73;93675;1198;82045;-63
2021/09/21 06:32:22;;;;;;;13.60;8.40;;;;;;;8.17;87.27;101150.64;93693;1196;81871;-62
2021/09/21 06:34:26;;;;;;;10.50;8.20;;;;;;;8.61;87.21;101148.48;93696;1196;99320;-64
2021/09/21 06:36:30;;;;;;;12.70;9.60;;;;;;;8.87;86.88;101150.73;93692;1196;86340;-64
2021/09/21 06:38:38;;;;;;;13.70;9.80;;;;;;;8.87;86.57;101155.20;93647;1196;94447;-64
2021/09/21 06:40:45;;;;;;;12.60;8.90;;;;;;;8.90;86.44;101160.91;93696;1196;78106;-64
2021/09/21 06:42:52;;;;;;;12.00;9.10;;;;;;;9.07;86.34;101167.73;93685;1196;82105;-63
2021/09/21 06:44:56;;;;;;;11.60;8.80;;;;;;;9.10;86.24;101178.36;93678;1196;98616;-62
2021/09/21 06:47:00;;;;;;;13.50;9.20;;;;;;;9.19;86.44;101179.59;93706;1196;86962;-62
2021/09/21 06:49:08;;;;;;;12.80;8.90;;;;;;;9.35;86.63;101178.11;93691;1197;94613;-63
2021/09/21 06:51:12;;;;;;;11.30;8.90;;;;;;;9.55;86.54;101181.06;93698;1196;77894;-62
2021/09/21 06:53:19;;;;;;;11.00;8.10;;;;;;;9.64;86.22;101184.05;93687;1196;82352;-65
2021/09/21 06:55:24;;;;;;;10.50;7.90;;;;;;;9.59;85.87;101193.24;93716;1196;99192;-63
2021/09/21 06:57:28;;;;;;;12.40;7.50;;;;;;;9.55;85.87;101197.23;93764;1196;87499;-64
2021/09/21 06:59:32;;;;;;;10.60;7.90;;;;;;;9.43;85.55;101204.48;93701;1196;93546;-64
2021/09/21 07:01:36;;;;;;;9.70;8.20;;;;;;;9.42;85.58;101205.11;93706;1196;79306;-63
2021/09/21 07:03:43;;;;;;;11.10;8.40;;;;;;;9.53;85.71;101207.39;93714;1196;82348;-62
2021/09/21 07:05:48;;;;;;;10.10;8.80;;;;;;;9.60;85.66;101202.86;93695;1196;98785;-63
2021/09/21 07:07:52;;;;;;;11.90;7.30;;;;;;;9.66;85.36;101198.71;93674;1196;87428;-63
2021/09/21 07:09:57;;;;;;;11.10;8.00;;;;;;;9.74;85.24;101199.91;93693;1196;94728;-62
2021/09/21 07:12:01;;;;;;;10.20;7.00;;;;;;;9.79;85.13;101199.64;93722;1196;82005;-62
2021/09/21 07:14:05;;;;;;;9.80;7.50;;;;;;;9.91;85.25;101202.64;93668;1196;81922;-63
2021/09/21 07:16:10;;;;;;;10.00;7.60;;;;;;;10.59;85.56;101198.13;93769;1196;97690;-61
2021/09/21 07:18:14;;;;;;;9.60;7.80;;;;;;;11.04;85.09;101199.69;93684;1196;86855;-62
2021/09/21 07:20:18;;;;;;;11.10;7.20;;;;;;;11.09;84.07;101200.89;93671;1196;94618;-65
2021/09/21 07:22:22;;;;;;;10.30;7.40;;;;;;;11.17;83.99;101197.55;93694;1197;78525;-62
2021/09/21 07:24:26;;;;;;;9.10;6.90;;;;;;;11.35;83.81;101199.21;93722;1196;81721;-65
2021/09/21 07:26:30;;;;;;;9.80;6.50;;;;;;;11.35;83.14;101193.19;93672;1196;98195;-62
2021/09/21 07:28:35;;;;;;;8.80;6.50;;;;;;;11.44;82.61;101191.35;93705;1196;87755;-69
2021/09/21 07:30:40;;;;;;;9.10;5.70;;;;;;;11.46;82.02;101185.68;93693;1197;94073;-65
2021/09/21 07:32:48;;;;;;;7.80;5.20;;;;;;;11.43;81.47;101180.79;93786;1196;77451;-64
2021/09/21 07:34:55;;;;;;;5.80;4.60;;;;;;;11.47;80.99;101178.72;93739;1196;80399;-62
2021/09/21 07:37:00;;;;;;;8.70;5.10;;;;;;;11.57;80.59;101190.27;93730;1197;97905;-61
2021/09/21 07:39:08;;;;;;;7.20;4.70;;;;;;;11.56;80.58;101198.02;93635;1198;86691;-65
2021/09/21 07:41:12;;;;;;;6.60;4.30;;;;;;;11.65;80.48;101199.43;93753;1196;93413;-65
2021/09/21 07:43:16;;;;;;;6.60;4.70;;;;;;;11.58;79.14;101202.45;93710;1198;78484;-62
2021/09/21 07:45:21;;;;;;;7.10;4.50;;;;;;;11.36;79.13;101205.08;93721;1196;82117;-62
2021/09/21 07:47:28;;;;;;;6.10;4.70;;;;;;;11.51;79.83;101204.73;93734;1196;97955;-63
2021/09/21 07:49:32;;;;;;;5.90;4.60;;;;;;;11.52;79.53;101211.80;93674;1196;88134;-65
2021/09/21 07:51:36;;;;;;;7.00;5.10;;;;;;;11.37;79.15;101219.00;93663;1196;93926;-65
2021/09/21 07:53:43;;;;;;;7.30;4.80;;;;;;;11.22;78.96;101222.25;93718;1196;79373;-62
2021/09/21 07:55:50;;;;;;;9.30;4.80;;;;;;;11.08;79.24;101223.17;93729;1196;81438;-62
2021/09/21 07:57:55;;;;;;;6.60;4.50;;;;;;;10.96;79.05;101227.41;93711;1196;98168;-62
2021/09/21 07:59:59;;;;;;;6.00;4.50;;;;;;;10.78;78.80;101234.88;93694;1197;87961;-62
2021/09/21 08:02:08;;;;;;;6.80;4.70;;;;;;;10.63;78.83;101229.67;93679;1196;94672;-61
2021/09/21 08:04:13;;;;;;;6.10;4.70;;;;;;;10.58;79.18;101230.39;93714;1196;77484;-65
2021/09/21 08:06:17;;;;;;;5.10;4.50;;;;;;;10.64;79.42;101225.05;93756;1197;81080;-63
2021/09/21 08:08:22;;;;;;;5.70;4.30;;;;;;;10.62;79.07;101226.73;93706;1197;97958;-61
2021/09/21 08:10:26;;;;;;;5.00;3.20;;;;;;;10.51;79.10;101227.45;93707;1196;87300;-62
2021/09/21 08:12:32;;;;;;;5.50;3.90;;;;;;;10.53;79.12;101224.02;93714;1196;93328;-62
2021/09/21 08:14:37;;;;;;;6.10;3.80;;;;;;;10.51;79.01;101230.33;93755;1196;78340;-62
2021/09/21 08:16:41;;;;;;;5.80;3.60;;;;;;;10.56;79.22;101227.29;93745;1196;81795;-63
2021/09/21 08:18:45;;;;;;;3.90;3.30;;;;;;;10.56;79.06;101226.52;93692;1197;99144;-62
2021/09/21 08:20:50;;;;;;;4.70;3.50;;;;;;;10.58;79.16;101229.35;93729;1196;86546;-62
2021/09/21 08:22:54;;;;;;;5.60;4.10;;;;;;;10.56;79.03;101227.98;93713;1197;93677;-62
2021/09/21 08:25:00;;;;;;;4.70;3.00;;;;;;;10.56;79.05;101229.41;93736;1197;78792;-67
2021/09/21 08:27:05;;;;;;;3.80;2.60;;;;;;;10.62;79.08;101231.02;93734;1189;81952;-66
2021/09/21 08:29:09;;;;;;;3.80;2.50;;;;;;;10.68;78.97;101231.84;93654;1196;99024;-65
2021/09/21 08:31:14;;;;;;;3.60;2.60;;;;;;;10.76;78.55;101228.11;93709;1197;87771;-64
2021/09/21 08:33:18;;;;;;;2.90;2.60;;;;;;;10.85;78.53;101227.40;93682;1197;94116;-66
2021/09/21 08:35:22;;;;;;;5.00;3.10;;;;;;;11.05;78.69;101225.09;93663;1196;78377;-65
2021/09/21 08:37:27;;;;;;;6.00;3.20;;;;;;;11.33;78.87;101233.48;93782;1196;80539;-65
2021/09/21 08:39:31;;;;;;;4.00;3.00;;;;;;;11.53;78.47;101237.33;93724;1196;99249;-65
2021/09/21 08:41:36;;;;;;;4.50;3.10;;;;;;;11.68;78.44;101237.21;93711;1196;87583;-65
2021/09/21 08:43:40;;;;;;;3.60;3.00;;;;;;;11.96;78.54;101239.55;93728;1196;91952;-63
2021/09/21 08:45:44;;;;;;;5.30;3.00;;;;;;;12.13;77.86;101237.16;93666;1197;78740;-62
2021/09/21 08:47:52;;;;;;;4.50;3.00;;;;;;;12.23;77.78;101238.55;93698;1196;81273;-64
2021/09/21 08:49:56;;;;;;;4.30;3.30;;;;;;;12.48;77.96;101237.70;93721;1196;99756;-65
2021/09/21 08:52:04;;;;;;;3.60;2.90;;;;;;;12.70;77.78;101240.56;93677;1196;88137;-64
2021/09/21 08:54:09;;;;;;;4.30;3.20;;;;;;;12.81;77.51;101236.09;93687;1196;93328;-63
2021/09/21 08:56:13;;;;;;;5.50;3.10;;;;;;;12.92;77.12;101232.23;93695;1197;79795;-63
2021/09/21 08:58:24;;;;;;;5.10;3.20;;;;;;;13.09;76.78;101234.33;93695;1197;80283;-65
2021/09/21 09:00:31;;;;;;;3.40;2.50;;;;;;;13.36;76.71;101229.22;93742;1196;98623;-66
2021/09/21 09:02:36;;;;;;;3.40;2.60;;;;;;;13.58;76.38;101227.11;93752;1197;88685;-65
2021/09/21 09:04:41;;;;;;;6.10;3.20;;;;;;;13.75;75.92;101227.20;93710;1196;93442;-65
2021/09/21 09:06:48;;;;;;;5.20;3.20;;;;;;;13.81;75.60;101225.10;93757;1196;78603;-65
2021/09/21 09:08:52;;;;;;;5.50;3.00;;;;;;;13.77;74.85;101226.94;93709;1196;80579;-62
2021/09/21 09:11:09;;;;;;;3.70;2.90;;;;;;;13.69;74.27;101226.55;93711;1197;98000;-62
2021/09/21 09:13:20;;;;;;;6.30;3.20;;;;;;;13.81;74.53;101226.64;93728;1196;87670;-63
2021/09/21 09:15:26;;;;;;;4.20;3.30;;;;;;;14.02;74.43;101224.98;93731;1197;91727;-66
2021/09/21 09:17:30;;;;;;;5.30;3.10;;;;;;;14.16;74.23;101224.20;93679;1198;79769;-65
2021/09/21 09:19:42;;;;;;;4.00;3.20;;;;;;;14.14;73.62;101223.23;93726;1197;80530;-66
2021/09/21 09:21:49;;;;;;;4.70;3.20;;;;;;;14.06;73.26;101220.47;93722;1197;97926;-67
2021/09/21 09:23:54;;;;;;;4.00;3.00;;;;;;;13.97;72.77;101218.55;93671;1196;88328;-66
2021/09/21 09:25:59;;;;;;;4.90;2.70;;;;;;;13.99;72.74;101212.20;93746;1196;92732;-65
2021/09/21 09:28:04;;;;;;;3.80;3.10;;;;;;;14.10;72.87;101216.63;93723;1197;78440;-62
2021/09/21 09:30:13;;;;;;;4.60;3.20;;;;;;;14.38;73.20;101212.52;93748;1197;80739;-64
2021/09/21 09:32:17;;;;;;;4.90;3.40;;;;;;;14.45;71.91;101208.62;93733;1197;98804;-66
2021/09/21 09:34:25;;;;;;;4.10;3.10;;;;;;;14.38;71.82;101209.48;93652;1196;87394;-62
2021/09/21 09:36:29;;;;;;;4.50;2.70;;;;;;;14.34;71.68;101209.05;93683;1197;94944;-63
2021/09/21 09:38:42;;;;;;;4.90;2.80;;;;;;;14.42;71.63;101205.95;93720;1196;79768;-64
2021/09/21 09:40:49;;;;;;;3.50;2.90;;;;;;;14.47;71.51;101200.96;93664;1197;82500;-65
2021/09/21 09:42:54;;;;;;;4.20;3.10;;;;;;;14.58;71.63;101203.13;93714;1197;97987;-64
2021/09/21 09:45:05;;;;;;;4.60;3.00;;;;;;;14.64;71.45;101202.73;93724;1197;87532;-65
2021/09/21 09:47:13;;;;;;;4.30;3.40;;;;;;;14.69;71.32;101200.55;93698;1197;93148;-65
2021/09/21 09:49:26;;;;;;;4.80;3.10;;;;;;;14.70;71.30;101197.71;93722;1196;78155;-63
2021/09/21 09:51:30;;;;;;;3.40;2.80;;;;;;;14.65;70.71;101195.25;93735;1196;80937;-63